sensor_id;sensor_type;location;lat;lon;timestamp;temperature;humidity
20091;DHT22;10205;49.678;6.560;2023-01-09T00:00:53;12.30;73.00
20091;DHT22;10205;49.678;6.560;2023-01-09T00:03:22;12.30;72.80
20091;DHT22;10205;49.678;6.560;2023-01-09T00:05:49;12.30;72.80
20091;DHT22;10205;49.678;6.560;2023-01-09T00:08:16;12.30;72.80
20091;DHT22;10205;49.678;6.560;2023-01-09T00:10:44;12.30;72.80
20091;DHT22;10205;49.678;6.560;2023-01-09T00:13:11;12.20;73.00
20091;DHT22;10205;49.678;6.560;2023-01-09T00:15:38;12.20;73.80
20091;DHT22;10205;49.678;6.560;2023-01-09T00:18:06;12.20;72.80
20091;DHT22;10205;49.678;6.560;2023-01-09T00:20:35;12.20;72.90
20091;DHT22;10205;49.678;6.560;2023-01-09T00:23:02;12.20;73.00
20091;DHT22;10205;49.678;6.560;2023-01-09T00:25:29;12.10;73.00
20091;DHT22;10205;49.678;6.560;2023-01-09T00:27:56;12.10;73.20
20091;DHT22;10205;49.678;6.560;2023-01-09T00:30:24;12.10;73.20
20091;DHT22;10205;49.678;6.560;2023-01-09T00:32:53;12.10;73.10
20091;DHT22;10205;49.678;6.560;2023-01-09T00:35:22;12.10;73.20
20091;DHT22;10205;49.678;6.560;2023-01-09T00:37:55;12.10;73.10
20091;DHT22;10205;49.678;6.560;2023-01-09T00:40:22;12.10;73.10
20091;DHT22;10205;49.678;6.560;2023-01-09T00:42:51;12.10;73.20
20091;DHT22;10205;49.678;6.560;2023-01-09T00:45:22;12.10;73.10
20091;DHT22;10205;49.678;6.560;2023-01-09T00:47:55;12.10;73.00
20091;DHT22;10205;49.678;6.560;2023-01-09T00:50:28;12.10;73.00
20091;DHT22;10205;49.678;6.560;2023-01-09T00:53:02;12.10;73.10
20091;DHT22;10205;49.678;6.560;2023-01-09T00:55:35;12.10;73.20
20091;DHT22;10205;49.678;6.560;2023-01-09T00:58:03;12.10;73.10
20091;DHT22;10205;49.678;6.560;2023-01-09T01:00:31;12.10;73.10
20091;DHT22;10205;49.678;6.560;2023-01-09T01:02:59;12.10;73.00
20091;DHT22;10205;49.678;6.560;2023-01-09T01:05:26;12.10;73.00
20091;DHT22;10205;49.678;6.560;2023-01-09T01:08:14;12.10;72.90
20091;DHT22;10205;49.678;6.560;2023-01-09T01:10:42;12.10;72.80
20091;DHT22;10205;49.678;6.560;2023-01-09T01:13:11;12.10;72.70
20091;DHT22;10205;49.678;6.560;2023-01-09T01:15:38;12.00;72.60
20091;DHT22;10205;49.678;6.560;2023-01-09T01:18:06;12.00;72.90
20091;DHT22;10205;49.678;6.560;2023-01-09T01:20:33;12.00;73.00
20091;DHT22;10205;49.678;6.560;2023-01-09T01:23:00;12.00;73.00
20091;DHT22;10205;49.678;6.560;2023-01-09T01:25:29;12.00;73.90
20091;DHT22;10205;49.678;6.560;2023-01-09T01:27:56;12.00;73.00
20091;DHT22;10205;49.678;6.560;2023-01-09T01:30:23;12.00;73.00
20091;DHT22;10205;49.678;6.560;2023-01-09T01:32:51;12.00;72.90
20091;DHT22;10205;49.678;6.560;2023-01-09T01:35:19;12.00;73.00
20091;DHT22;10205;49.678;6.560;2023-01-09T01:37:47;12.00;73.00
20091;DHT22;10205;49.678;6.560;2023-01-09T01:40:15;12.00;73.10
20091;DHT22;10205;49.678;6.560;2023-01-09T01:42:49;12.00;73.00
20091;DHT22;10205;49.678;6.560;2023-01-09T01:45:19;12.00;73.20
20091;DHT22;10205;49.678;6.560;2023-01-09T01:47:52;12.00;73.20
20091;DHT22;10205;49.678;6.560;2023-01-09T01:50:28;12.00;73.20
20091;DHT22;10205;49.678;6.560;2023-01-09T01:53:04;12.00;73.00
20091;DHT22;10205;49.678;6.560;2023-01-09T01:55:38;12.00;73.00
20091;DHT22;10205;49.678;6.560;2023-01-09T01:58:10;12.00;73.00
20091;DHT22;10205;49.678;6.560;2023-01-09T02:00:46;12.00;73.10
20091;DHT22;10205;49.678;6.560;2023-01-09T02:03:14;12.00;72.90
20091;DHT22;10205;49.678;6.560;2023-01-09T02:05:45;12.00;73.70
20091;DHT22;10205;49.678;6.560;2023-01-09T02:08:12;12.00;73.00
20091;DHT22;10205;49.678;6.560;2023-01-09T02:10:40;12.00;73.00
20091;DHT22;10205;49.678;6.560;2023-01-09T02:13:10;12.00;73.00
20091;DHT22;10205;49.678;6.560;2023-01-09T02:15:46;12.00;72.90
20091;DHT22;10205;49.678;6.560;2023-01-09T02:18:38;12.00;72.90
20091;DHT22;10205;49.678;6.560;2023-01-09T02:21:21;12.00;73.10
20091;DHT22;10205;49.678;6.560;2023-01-09T02:24:08;12.00;73.20
20091;DHT22;10205;49.678;6.560;2023-01-09T02:27:07;12.00;73.20
20091;DHT22;10205;49.678;6.560;2023-01-09T02:30:19;12.00;73.10
20091;DHT22;10205;49.678;6.560;2023-01-09T02:33:08;12.00;72.60
20091;DHT22;10205;49.678;6.560;2023-01-09T02:36:00;12.00;72.50
20091;DHT22;10205;49.678;6.560;2023-01-09T02:38:38;12.00;72.40
20091;DHT22;10205;49.678;6.560;2023-01-09T02:41:16;12.00;72.30
20091;DHT22;10205;49.678;6.560;2023-01-09T02:44:01;11.90;72.30
20091;DHT22;10205;49.678;6.560;2023-01-09T02:46:39;11.90;72.40
20091;DHT22;10205;49.678;6.560;2023-01-09T02:49:06;11.90;72.10
20091;DHT22;10205;49.678;6.560;2023-01-09T02:51:38;11.90;72.10
20091;DHT22;10205;49.678;6.560;2023-01-09T02:54:25;11.90;72.30
20091;DHT22;10205;49.678;6.560;2023-01-09T02:57:13;11.80;72.10
20091;DHT22;10205;49.678;6.560;2023-01-09T02:59:59;11.80;71.90
20091;DHT22;10205;49.678;6.560;2023-01-09T03:02:43;11.80;72.00
20091;DHT22;10205;49.678;6.560;2023-01-09T03:05:21;11.80;71.70
20091;DHT22;10205;49.678;6.560;2023-01-09T03:07:57;11.80;71.60
20091;DHT22;10205;49.678;6.560;2023-01-09T03:10:31;11.80;71.20
20091;DHT22;10205;49.678;6.560;2023-01-09T03:13:04;11.80;71.40
20091;DHT22;10205;49.678;6.560;2023-01-09T03:15:36;11.70;71.20
20091;DHT22;10205;49.678;6.560;2023-01-09T03:18:09;11.70;71.50
20091;DHT22;10205;49.678;6.560;2023-01-09T03:20:40;11.70;71.10
20091;DHT22;10205;49.678;6.560;2023-01-09T03:23:09;11.70;71.30
20091;DHT22;10205;49.678;6.560;2023-01-09T03:25:36;11.70;70.90
20091;DHT22;10205;49.678;6.560;2023-01-09T03:28:05;11.70;70.80
20091;DHT22;10205;49.678;6.560;2023-01-09T03:30:35;11.60;70.40
20091;DHT22;10205;49.678;6.560;2023-01-09T03:33:02;11.60;70.50
20091;DHT22;10205;49.678;6.560;2023-01-09T03:35:31;11.60;70.90
20091;DHT22;10205;49.678;6.560;2023-01-09T03:37:58;11.60;70.90
20091;DHT22;10205;49.678;6.560;2023-01-09T03:40:25;11.60;70.90
20091;DHT22;10205;49.678;6.560;2023-01-09T03:42:52;11.50;70.70
20091;DHT22;10205;49.678;6.560;2023-01-09T03:45:19;11.50;70.90
20091;DHT22;10205;49.678;6.560;2023-01-09T03:47:46;11.50;70.90
20091;DHT22;10205;49.678;6.560;2023-01-09T03:50:14;11.50;71.70
20091;DHT22;10205;49.678;6.560;2023-01-09T03:52:45;11.50;71.00
20091;DHT22;10205;49.678;6.560;2023-01-09T03:55:12;11.50;71.90
20091;DHT22;10205;49.678;6.560;2023-01-09T03:57:39;11.50;71.30
20091;DHT22;10205;49.678;6.560;2023-01-09T04:00:07;11.40;70.80
20091;DHT22;10205;49.678;6.560;2023-01-09T04:02:35;11.40;70.80
20091;DHT22;10205;49.678;6.560;2023-01-09T04:05:02;11.40;70.80
20091;DHT22;10205;49.678;6.560;2023-01-09T04:07:29;11.40;70.80
20091;DHT22;10205;49.678;6.560;2023-01-09T04:09:58;11.40;70.90
20091;DHT22;10205;49.678;6.560;2023-01-09T04:12:25;11.30;71.50
20091;DHT22;10205;49.678;6.560;2023-01-09T04:14:52;11.30;70.50
20091;DHT22;10205;49.678;6.560;2023-01-09T04:17:19;11.30;70.70
20091;DHT22;10205;49.678;6.560;2023-01-09T04:19:46;11.30;70.70
20091;DHT22;10205;49.678;6.560;2023-01-09T04:22:13;11.30;70.80
20091;DHT22;10205;49.678;6.560;2023-01-09T04:24:40;11.20;70.90
20091;DHT22;10205;49.678;6.560;2023-01-09T04:27:08;11.20;70.80
20091;DHT22;10205;49.678;6.560;2023-01-09T04:29:36;11.20;70.40
20091;DHT22;10205;49.678;6.560;2023-01-09T04:32:04;11.20;70.40
20091;DHT22;10205;49.678;6.560;2023-01-09T04:34:31;11.20;70.70
20091;DHT22;10205;49.678;6.560;2023-01-09T04:36:58;11.20;70.70
20091;DHT22;10205;49.678;6.560;2023-01-09T04:39:25;11.10;70.70
20091;DHT22;10205;49.678;6.560;2023-01-09T04:41:52;11.10;71.00
20091;DHT22;10205;49.678;6.560;2023-01-09T04:44:22;11.10;71.20
20091;DHT22;10205;49.678;6.560;2023-01-09T04:46:51;11.00;71.10
20091;DHT22;10205;49.678;6.560;2023-01-09T04:49:19;11.00;71.20
20091;DHT22;10205;49.678;6.560;2023-01-09T04:51:47;11.00;71.40
20091;DHT22;10205;49.678;6.560;2023-01-09T04:54:14;11.00;71.60
20091;DHT22;10205;49.678;6.560;2023-01-09T04:56:41;11.00;71.60
20091;DHT22;10205;49.678;6.560;2023-01-09T04:59:09;11.00;71.60
20091;DHT22;10205;49.678;6.560;2023-01-09T05:01:37;11.00;71.80
20091;DHT22;10205;49.678;6.560;2023-01-09T05:04:05;11.00;71.80
20091;DHT22;10205;49.678;6.560;2023-01-09T05:06:33;11.00;71.90
20091;DHT22;10205;49.678;6.560;2023-01-09T05:09:00;10.90;72.00
20091;DHT22;10205;49.678;6.560;2023-01-09T05:11:27;10.90;72.10
20091;DHT22;10205;49.678;6.560;2023-01-09T05:13:54;10.90;72.30
20091;DHT22;10205;49.678;6.560;2023-01-09T05:16:21;10.90;72.30
20091;DHT22;10205;49.678;6.560;2023-01-09T05:18:49;10.90;73.30
20091;DHT22;10205;49.678;6.560;2023-01-09T05:21:21;10.80;72.60
20091;DHT22;10205;49.678;6.560;2023-01-09T05:23:48;10.80;72.60
20091;DHT22;10205;49.678;6.560;2023-01-09T05:26:15;10.80;72.60
20091;DHT22;10205;49.678;6.560;2023-01-09T05:28:43;10.80;72.70
20091;DHT22;10205;49.678;6.560;2023-01-09T05:31:10;10.80;72.80
20091;DHT22;10205;49.678;6.560;2023-01-09T05:33:37;10.80;72.80
20091;DHT22;10205;49.678;6.560;2023-01-09T05:36:06;10.80;72.80
20091;DHT22;10205;49.678;6.560;2023-01-09T05:38:33;10.80;72.90
20091;DHT22;10205;49.678;6.560;2023-01-09T05:41:00;10.80;73.00
20091;DHT22;10205;49.678;6.560;2023-01-09T05:43:27;10.80;73.00
20091;DHT22;10205;49.678;6.560;2023-01-09T05:45:55;10.80;73.00
20091;DHT22;10205;49.678;6.560;2023-01-09T05:48:22;10.80;73.00
20091;DHT22;10205;49.678;6.560;2023-01-09T05:50:49;10.80;73.00
20091;DHT22;10205;49.678;6.560;2023-01-09T05:53:18;10.80;73.20
20091;DHT22;10205;49.678;6.560;2023-01-09T05:55:45;10.80;73.10
20091;DHT22;10205;49.678;6.560;2023-01-09T05:58:12;10.80;73.20
20091;DHT22;10205;49.678;6.560;2023-01-09T06:00:39;10.80;73.20
20091;DHT22;10205;49.678;6.560;2023-01-09T06:03:07;10.80;73.20
20091;DHT22;10205;49.678;6.560;2023-01-09T06:05:34;10.80;73.20
20091;DHT22;10205;49.678;6.560;2023-01-09T06:08:01;10.80;73.30
20091;DHT22;10205;49.678;6.560;2023-01-09T06:10:30;10.80;73.20
20091;DHT22;10205;49.678;6.560;2023-01-09T06:12:57;10.80;73.30
20091;DHT22;10205;49.678;6.560;2023-01-09T06:15:25;10.80;73.30
20091;DHT22;10205;49.678;6.560;2023-01-09T06:17:53;10.80;73.10
20091;DHT22;10205;49.678;6.560;2023-01-09T06:20:20;10.80;73.10
20091;DHT22;10205;49.678;6.560;2023-01-09T06:22:47;10.80;73.10
20091;DHT22;10205;49.678;6.560;2023-01-09T06:25:16;10.80;73.10
20091;DHT22;10205;49.678;6.560;2023-01-09T06:27:45;10.80;73.10
20091;DHT22;10205;49.678;6.560;2023-01-09T06:30:12;10.80;73.20
20091;DHT22;10205;49.678;6.560;2023-01-09T06:32:40;10.80;73.20
20091;DHT22;10205;49.678;6.560;2023-01-09T06:35:07;10.80;73.30
20091;DHT22;10205;49.678;6.560;2023-01-09T06:37:36;10.80;73.30
20091;DHT22;10205;49.678;6.560;2023-01-09T06:40:04;10.80;73.30
20091;DHT22;10205;49.678;6.560;2023-01-09T06:42:32;10.80;73.30
20091;DHT22;10205;49.678;6.560;2023-01-09T06:45:00;10.80;73.40
20091;DHT22;10205;49.678;6.560;2023-01-09T06:47:27;10.80;73.50
20091;DHT22;10205;49.678;6.560;2023-01-09T06:49:54;10.80;73.40
20091;DHT22;10205;49.678;6.560;2023-01-09T06:52:22;10.70;73.30
20091;DHT22;10205;49.678;6.560;2023-01-09T06:54:49;10.80;73.40
20091;DHT22;10205;49.678;6.560;2023-01-09T06:57:16;10.80;74.20
20091;DHT22;10205;49.678;6.560;2023-01-09T06:59:44;10.80;73.40
20091;DHT22;10205;49.678;6.560;2023-01-09T07:02:17;10.70;73.30
20091;DHT22;10205;49.678;6.560;2023-01-09T07:04:44;10.80;73.40
20091;DHT22;10205;49.678;6.560;2023-01-09T07:07:12;10.80;73.40
20091;DHT22;10205;49.678;6.560;2023-01-09T07:09:40;10.80;73.30
20091;DHT22;10205;49.678;6.560;2023-01-09T07:12:07;10.80;73.40
20091;DHT22;10205;49.678;6.560;2023-01-09T07:14:34;10.80;73.30
20091;DHT22;10205;49.678;6.560;2023-01-09T07:17:02;10.80;73.40
20091;DHT22;10205;49.678;6.560;2023-01-09T07:19:30;10.80;73.30
20091;DHT22;10205;49.678;6.560;2023-01-09T07:21:57;10.80;73.30
20091;DHT22;10205;49.678;6.560;2023-01-09T07:24:24;10.80;73.30
20091;DHT22;10205;49.678;6.560;2023-01-09T07:26:52;10.80;73.40
20091;DHT22;10205;49.678;6.560;2023-01-09T07:29:19;10.80;74.20
20091;DHT22;10205;49.678;6.560;2023-01-09T07:31:46;10.80;73.30
20091;DHT22;10205;49.678;6.560;2023-01-09T07:34:13;10.80;73.30
20091;DHT22;10205;49.678;6.560;2023-01-09T07:36:41;10.80;73.30
20091;DHT22;10205;49.678;6.560;2023-01-09T07:39:11;10.80;74.10
20091;DHT22;10205;49.678;6.560;2023-01-09T07:41:38;10.80;73.30
20091;DHT22;10205;49.678;6.560;2023-01-09T07:44:05;10.80;73.40
20091;DHT22;10205;49.678;6.560;2023-01-09T07:46:33;10.80;73.50
20091;DHT22;10205;49.678;6.560;2023-01-09T07:49:00;10.80;73.40
20091;DHT22;10205;49.678;6.560;2023-01-09T07:51:27;10.80;73.60
20091;DHT22;10205;49.678;6.560;2023-01-09T07:53:55;10.80;73.50
20091;DHT22;10205;49.678;6.560;2023-01-09T07:56:22;10.80;73.50
20091;DHT22;10205;49.678;6.560;2023-01-09T07:58:50;10.80;73.60
20091;DHT22;10205;49.678;6.560;2023-01-09T08:01:17;10.80;73.70
20091;DHT22;10205;49.678;6.560;2023-01-09T08:03:44;10.80;73.60
20091;DHT22;10205;49.678;6.560;2023-01-09T08:06:11;10.80;73.70
20091;DHT22;10205;49.678;6.560;2023-01-09T08:08:41;10.80;73.70
20091;DHT22;10205;49.678;6.560;2023-01-09T08:11:10;10.80;73.80
20091;DHT22;10205;49.678;6.560;2023-01-09T08:13:37;10.80;74.00
20091;DHT22;10205;49.678;6.560;2023-01-09T08:16:04;10.80;74.00
20091;DHT22;10205;49.678;6.560;2023-01-09T08:18:32;10.80;74.00
20091;DHT22;10205;49.678;6.560;2023-01-09T08:20:59;10.80;74.10
20091;DHT22;10205;49.678;6.560;2023-01-09T08:23:26;10.80;73.90
20091;DHT22;10205;49.678;6.560;2023-01-09T08:25:53;10.80;73.80
20091;DHT22;10205;49.678;6.560;2023-01-09T08:28:21;10.80;74.70
20091;DHT22;10205;49.678;6.560;2023-01-09T08:30:49;10.80;74.00
20091;DHT22;10205;49.678;6.560;2023-01-09T08:33:16;10.80;73.80
20091;DHT22;10205;49.678;6.560;2023-01-09T08:35:43;10.80;73.90
20091;DHT22;10205;49.678;6.560;2023-01-09T08:38:10;10.80;73.90
20091;DHT22;10205;49.678;6.560;2023-01-09T08:40:38;10.80;73.90
20091;DHT22;10205;49.678;6.560;2023-01-09T08:43:05;10.80;74.00
20091;DHT22;10205;49.678;6.560;2023-01-09T08:45:47;10.80;74.80
20091;DHT22;10205;49.678;6.560;2023-01-09T08:48:32;10.80;74.00
20091;DHT22;10205;49.678;6.560;2023-01-09T08:50:59;10.80;73.80
20091;DHT22;10205;49.678;6.560;2023-01-09T08:53:26;10.80;74.00
20091;DHT22;10205;49.678;6.560;2023-01-09T08:55:54;10.80;74.00
20091;DHT22;10205;49.678;6.560;2023-01-09T08:58:21;10.80;73.90
20091;DHT22;10205;49.678;6.560;2023-01-09T09:00:49;10.80;74.00
20091;DHT22;10205;49.678;6.560;2023-01-09T09:03:16;10.80;73.90
20091;DHT22;10205;49.678;6.560;2023-01-09T09:05:43;10.80;73.80
20091;DHT22;10205;49.678;6.560;2023-01-09T09:08:10;10.80;73.80
20091;DHT22;10205;49.678;6.560;2023-01-09T09:10:37;10.80;73.90
20091;DHT22;10205;49.678;6.560;2023-01-09T09:13:04;10.80;74.00
20091;DHT22;10205;49.678;6.560;2023-01-09T09:15:31;10.80;74.00
20091;DHT22;10205;49.678;6.560;2023-01-09T09:18:01;10.80;73.80
20091;DHT22;10205;49.678;6.560;2023-01-09T09:20:32;10.80;73.90
20091;DHT22;10205;49.678;6.560;2023-01-09T09:23:01;10.80;74.70
20091;DHT22;10205;49.678;6.560;2023-01-09T09:25:28;10.80;73.80
20091;DHT22;10205;49.678;6.560;2023-01-09T09:27:56;10.90;73.80
20091;DHT22;10205;49.678;6.560;2023-01-09T09:30:25;10.90;73.90
20091;DHT22;10205;49.678;6.560;2023-01-09T09:32:52;10.90;73.90
20091;DHT22;10205;49.678;6.560;2023-01-09T09:35:21;10.90;73.80
20091;DHT22;10205;49.678;6.560;2023-01-09T09:37:52;10.90;74.00
20091;DHT22;10205;49.678;6.560;2023-01-09T09:40:38;10.90;74.00
20091;DHT22;10205;49.678;6.560;2023-01-09T09:43:53;10.90;74.00
20091;DHT22;10205;49.678;6.560;2023-01-09T09:46:56;10.90;74.00
20091;DHT22;10205;49.678;6.560;2023-01-09T09:49:38;10.90;73.70
20091;DHT22;10205;49.678;6.560;2023-01-09T09:52:21;10.90;73.70
20091;DHT22;10205;49.678;6.560;2023-01-09T09:54:57;10.90;73.70
20091;DHT22;10205;49.678;6.560;2023-01-09T09:57:35;11.00;73.80
20091;DHT22;10205;49.678;6.560;2023-01-09T10:00:05;11.00;73.80
20091;DHT22;10205;49.678;6.560;2023-01-09T10:02:43;11.00;73.70
20091;DHT22;10205;49.678;6.560;2023-01-09T10:05:19;10.90;73.70
20091;DHT22;10205;49.678;6.560;2023-01-09T10:07:55;10.90;73.70
20091;DHT22;10205;49.678;6.560;2023-01-09T10:10:31;10.90;73.70
20091;DHT22;10205;49.678;6.560;2023-01-09T10:13:03;10.90;73.70
20091;DHT22;10205;49.678;6.560;2023-01-09T10:15:48;10.90;73.80
20091;DHT22;10205;49.678;6.560;2023-01-09T10:18:28;10.90;74.00
20091;DHT22;10205;49.678;6.560;2023-01-09T10:21:03;10.90;74.00
20091;DHT22;10205;49.678;6.560;2023-01-09T10:23:53;11.00;73.80
20091;DHT22;10205;49.678;6.560;2023-01-09T10:26:37;11.00;73.80
20091;DHT22;10205;49.678;6.560;2023-01-09T10:29:24;11.00;74.50
20091;DHT22;10205;49.678;6.560;2023-01-09T10:32:11;11.00;73.80
20091;DHT22;10205;49.678;6.560;2023-01-09T10:34:57;11.00;73.80
20091;DHT22;10205;49.678;6.560;2023-01-09T10:37:49;11.00;73.70
20091;DHT22;10205;49.678;6.560;2023-01-09T10:40:23;11.00;73.70
20091;DHT22;10205;49.678;6.560;2023-01-09T10:42:58;11.00;73.70
20091;DHT22;10205;49.678;6.560;2023-01-09T10:45:32;11.00;74.50
20091;DHT22;10205;49.678;6.560;2023-01-09T10:48:17;11.00;73.80
20091;DHT22;10205;49.678;6.560;2023-01-09T10:50:50;11.00;73.80
20091;DHT22;10205;49.678;6.560;2023-01-09T10:53:24;11.00;73.70
20091;DHT22;10205;49.678;6.560;2023-01-09T10:55:59;11.00;73.80
20091;DHT22;10205;49.678;6.560;2023-01-09T10:58:29;11.10;73.90
20091;DHT22;10205;49.678;6.560;2023-01-09T11:00:57;11.10;73.70
20091;DHT22;10205;49.678;6.560;2023-01-09T11:03:27;11.10;73.70
20091;DHT22;10205;49.678;6.560;2023-01-09T11:05:56;11.10;73.70
20091;DHT22;10205;49.678;6.560;2023-01-09T11:08:28;11.10;73.70
20091;DHT22;10205;49.678;6.560;2023-01-09T11:11:01;11.10;73.80
20091;DHT22;10205;49.678;6.560;2023-01-09T11:13:30;11.10;73.80
20091;DHT22;10205;49.678;6.560;2023-01-09T11:16:00;11.10;73.80
20091;DHT22;10205;49.678;6.560;2023-01-09T11:18:30;11.20;73.90
20091;DHT22;10205;49.678;6.560;2023-01-09T11:21:25;11.20;73.80
20091;DHT22;10205;49.678;6.560;2023-01-09T11:24:26;11.20;74.00
20091;DHT22;10205;49.678;6.560;2023-01-09T11:27:30;11.20;74.00
20091;DHT22;10205;49.678;6.560;2023-01-09T11:30:14;11.20;73.90
20091;DHT22;10205;49.678;6.560;2023-01-09T11:32:46;11.30;73.80
20091;DHT22;10205;49.678;6.560;2023-01-09T11:35:20;11.30;73.60
20091;DHT22;10205;49.678;6.560;2023-01-09T11:37:59;11.30;73.60
20091;DHT22;10205;49.678;6.560;2023-01-09T11:40:35;11.30;73.50
20091;DHT22;10205;49.678;6.560;2023-01-09T11:43:17;11.30;73.20
20091;DHT22;10205;49.678;6.560;2023-01-09T11:45:50;11.40;73.60
20091;DHT22;10205;49.678;6.560;2023-01-09T11:48:36;11.40;73.40
20091;DHT22;10205;49.678;6.560;2023-01-09T11:51:19;11.40;73.50
20091;DHT22;10205;49.678;6.560;2023-01-09T11:53:55;11.40;73.10
20091;DHT22;10205;49.678;6.560;2023-01-09T11:56:45;11.40;73.10
20091;DHT22;10205;49.678;6.560;2023-01-09T11:59:16;11.50;72.90
20091;DHT22;10205;49.678;6.560;2023-01-09T12:02:09;11.50;72.80
20091;DHT22;10205;49.678;6.560;2023-01-09T12:05:00;11.50;73.00
20091;DHT22;10205;49.678;6.560;2023-01-09T12:08:02;11.50;73.00
20091;DHT22;10205;49.678;6.560;2023-01-09T12:11:02;11.50;73.00
20091;DHT22;10205;49.678;6.560;2023-01-09T12:17:16;11.60;72.70
20091;DHT22;10205;49.678;6.560;2023-01-09T12:20:21;11.60;72.70
20091;DHT22;10205;49.678;6.560;2023-01-09T12:23:10;11.60;72.30
20091;DHT22;10205;49.678;6.560;2023-01-09T12:26:04;11.70;72.30
20091;DHT22;10205;49.678;6.560;2023-01-09T12:29:10;11.70;72.10
20091;DHT22;10205;49.678;6.560;2023-01-09T12:32:32;11.60;71.50
20091;DHT22;10205;49.678;6.560;2023-01-09T12:35:20;11.70;71.50
20091;DHT22;10205;49.678;6.560;2023-01-09T12:38:06;11.60;72.50
20091;DHT22;10205;49.678;6.560;2023-01-09T12:41:07;11.60;71.90
20091;DHT22;10205;49.678;6.560;2023-01-09T12:43:56;11.60;71.80
20091;DHT22;10205;49.678;6.560;2023-01-09T12:46:40;11.60;71.80
20091;DHT22;10205;49.678;6.560;2023-01-09T12:49:27;11.60;71.90
20091;DHT22;10205;49.678;6.560;2023-01-09T13:03:32;11.70;71.90
20091;DHT22;10205;49.678;6.560;2023-01-09T13:06:06;11.70;71.80
20091;DHT22;10205;49.678;6.560;2023-01-09T13:08:40;11.70;71.90
20091;DHT22;10205;49.678;6.560;2023-01-09T13:11:15;11.70;72.60
20091;DHT22;10205;49.678;6.560;2023-01-09T13:13:50;11.70;71.70
20091;DHT22;10205;49.678;6.560;2023-01-09T13:16:24;11.70;71.50
20091;DHT22;10205;49.678;6.560;2023-01-09T13:18:59;11.70;71.50
20091;DHT22;10205;49.678;6.560;2023-01-09T13:21:36;11.70;71.50
20091;DHT22;10205;49.678;6.560;2023-01-09T13:24:12;11.70;71.30
20091;DHT22;10205;49.678;6.560;2023-01-09T13:26:47;11.70;71.40
20091;DHT22;10205;49.678;6.560;2023-01-09T13:29:19;11.70;71.60
20091;DHT22;10205;49.678;6.560;2023-01-09T13:35:12;11.70;71.20
20091;DHT22;10205;49.678;6.560;2023-01-09T13:37:42;11.70;71.50
20091;DHT22;10205;49.678;6.560;2023-01-09T13:40:27;11.70;71.60
20091;DHT22;10205;49.678;6.560;2023-01-09T13:43:00;11.70;71.40
20091;DHT22;10205;49.678;6.560;2023-01-09T13:45:29;11.70;71.50
20091;DHT22;10205;49.678;6.560;2023-01-09T13:48:27;11.70;71.60
20091;DHT22;10205;49.678;6.560;2023-01-09T13:54:59;11.70;71.70
20091;DHT22;10205;49.678;6.560;2023-01-09T13:57:31;11.70;71.60
20091;DHT22;10205;49.678;6.560;2023-01-09T14:03:19;11.70;71.50
20091;DHT22;10205;49.678;6.560;2023-01-09T14:06:17;11.70;71.70
20091;DHT22;10205;49.678;6.560;2023-01-09T14:08:47;11.70;72.20
20091;DHT22;10205;49.678;6.560;2023-01-09T14:11:26;11.60;71.70
20091;DHT22;10205;49.678;6.560;2023-01-09T14:14:02;11.70;71.60
20091;DHT22;10205;49.678;6.560;2023-01-09T14:16:34;11.70;71.90
20091;DHT22;10205;49.678;6.560;2023-01-09T14:19:06;11.70;71.50
20091;DHT22;10205;49.678;6.560;2023-01-09T14:21:58;11.60;71.70
20091;DHT22;10205;49.678;6.560;2023-01-09T14:24:29;11.60;71.40
20091;DHT22;10205;49.678;6.560;2023-01-09T14:27:00;11.60;71.50
20091;DHT22;10205;49.678;6.560;2023-01-09T14:29:41;11.60;71.60
20091;DHT22;10205;49.678;6.560;2023-01-09T14:32:43;11.60;71.00
20091;DHT22;10205;49.678;6.560;2023-01-09T14:35:33;11.60;72.50
20091;DHT22;10205;49.678;6.560;2023-01-09T14:38:20;11.60;72.00
20091;DHT22;10205;49.678;6.560;2023-01-09T14:40:57;11.60;71.70
20091;DHT22;10205;49.678;6.560;2023-01-09T14:43:38;11.60;71.40
20091;DHT22;10205;49.678;6.560;2023-01-09T14:46:13;11.60;71.30
20091;DHT22;10205;49.678;6.560;2023-01-09T14:48:54;11.60;71.50
20091;DHT22;10205;49.678;6.560;2023-01-09T14:51:30;11.60;70.90
20091;DHT22;10205;49.678;6.560;2023-01-09T14:54:11;11.50;71.10
20091;DHT22;10205;49.678;6.560;2023-01-09T14:56:52;11.50;71.10
20091;DHT22;10205;49.678;6.560;2023-01-09T14:59:21;11.50;71.20
20091;DHT22;10205;49.678;6.560;2023-01-09T15:01:50;11.50;71.00
20091;DHT22;10205;49.678;6.560;2023-01-09T15:04:31;11.50;71.40
20091;DHT22;10205;49.678;6.560;2023-01-09T15:07:00;11.50;71.80
20091;DHT22;10205;49.678;6.560;2023-01-09T15:09:32;11.50;72.00
20091;DHT22;10205;49.678;6.560;2023-01-09T15:12:14;11.50;71.80
20091;DHT22;10205;49.678;6.560;2023-01-09T15:14:46;11.50;71.70
20091;DHT22;10205;49.678;6.560;2023-01-09T15:17:19;11.50;71.80
20091;DHT22;10205;49.678;6.560;2023-01-09T15:19:50;11.50;71.90
20091;DHT22;10205;49.678;6.560;2023-01-09T15:22:22;11.50;71.80
20091;DHT22;10205;49.678;6.560;2023-01-09T15:24:53;11.50;71.80
20091;DHT22;10205;49.678;6.560;2023-01-09T15:27:20;11.50;71.70
20091;DHT22;10205;49.678;6.560;2023-01-09T15:29:49;11.50;71.80
20091;DHT22;10205;49.678;6.560;2023-01-09T15:32:22;11.50;71.40
20091;DHT22;10205;49.678;6.560;2023-01-09T15:34:52;11.50;71.10
20091;DHT22;10205;49.678;6.560;2023-01-09T15:37:27;11.50;71.10
20091;DHT22;10205;49.678;6.560;2023-01-09T15:39:58;11.50;71.20
20091;DHT22;10205;49.678;6.560;2023-01-09T15:42:32;11.50;71.00
20091;DHT22;10205;49.678;6.560;2023-01-09T15:45:24;11.40;70.80
20091;DHT22;10205;49.678;6.560;2023-01-09T15:47:54;11.40;71.20
20091;DHT22;10205;49.678;6.560;2023-01-09T15:50:40;11.40;71.30
20091;DHT22;10205;49.678;6.560;2023-01-09T15:53:11;11.40;71.10
20091;DHT22;10205;49.678;6.560;2023-01-09T15:55:40;11.40;71.40
20091;DHT22;10205;49.678;6.560;2023-01-09T15:58:25;11.40;71.80
20091;DHT22;10205;49.678;6.560;2023-01-09T16:00:56;11.40;71.30
20091;DHT22;10205;49.678;6.560;2023-01-09T16:03:25;11.40;71.40
20091;DHT22;10205;49.678;6.560;2023-01-09T16:05:55;11.40;71.00
20091;DHT22;10205;49.678;6.560;2023-01-09T16:08:32;11.40;72.20
20091;DHT22;10205;49.678;6.560;2023-01-09T16:11:04;11.40;71.50
20091;DHT22;10205;49.678;6.560;2023-01-09T16:13:38;11.40;71.30
20091;DHT22;10205;49.678;6.560;2023-01-09T16:16:11;11.40;71.10
20091;DHT22;10205;49.678;6.560;2023-01-09T16:18:49;11.40;71.10
20091;DHT22;10205;49.678;6.560;2023-01-09T16:21:27;11.40;71.30
20091;DHT22;10205;49.678;6.560;2023-01-09T16:23:57;11.40;71.20
20091;DHT22;10205;49.678;6.560;2023-01-09T16:26:31;11.40;71.20
20091;DHT22;10205;49.678;6.560;2023-01-09T16:29:26;11.40;71.10
20091;DHT22;10205;49.678;6.560;2023-01-09T16:32:02;11.40;70.70
20091;DHT22;10205;49.678;6.560;2023-01-09T16:34:33;11.40;71.10